sensor_id;sensor_type;location;lat;lon;timestamp;P1;durP1;ratioP1;P2;durP2;ratioP2
56736;SDS011;42618;51.226;4.910;2023-12-07T00:02:24;38.20;;;17.08;;
56736;SDS011;42618;51.226;4.910;2023-12-07T00:04:51;39.92;;;17.92;;
56736;SDS011;42618;51.226;4.910;2023-12-07T00:07:18;57.55;;;14.07;;
56736;SDS011;42618;51.226;4.910;2023-12-07T00:09:44;95.70;;;15.60;;
56736;SDS011;42618;51.226;4.910;2023-12-07T00:12:11;96.60;;;19.60;;
56736;SDS011;42618;51.226;4.910;2023-12-07T00:14:38;73.65;;;11.82;;
56736;SDS011;42618;51.226;4.910;2023-12-07T00:17:04;83.40;;;13.30;;
56736;SDS011;42618;51.226;4.910;2023-12-07T00:19:31;95.15;;;16.05;;
56736;SDS011;42618;51.226;4.910;2023-12-07T00:22:01;122.47;;;18.60;;
56736;SDS011;42618;51.226;4.910;2023-12-07T00:24:28;93.60;;;16.58;;
56736;SDS011;42618;51.226;4.910;2023-12-07T00:26:55;81.18;;;16.83;;
56736;SDS011;42618;51.226;4.910;2023-12-07T00:29:22;78.30;;;14.95;;
56736;SDS011;42618;51.226;4.910;2023-12-07T00:31:49;78.90;;;13.57;;
56736;SDS011;42618;51.226;4.910;2023-12-07T00:34:15;86.75;;;16.67;;
56736;SDS011;42618;51.226;4.910;2023-12-07T00:36:45;142.88;;;15.73;;
56736;SDS011;42618;51.226;4.910;2023-12-07T00:39:12;142.10;;;15.82;;
56736;SDS011;42618;51.226;4.910;2023-12-07T00:41:41;39.03;;;7.63;;
56736;SDS011;42618;51.226;4.910;2023-12-07T00:44:08;93.18;;;13.35;;
56736;SDS011;42618;51.226;4.910;2023-12-07T00:46:34;58.47;;;12.52;;
56736;SDS011;42618;51.226;4.910;2023-12-07T00:49:01;93.38;;;12.18;;
56736;SDS011;42618;51.226;4.910;2023-12-07T00:51:28;38.67;;;11.45;;
56736;SDS011;42618;51.226;4.910;2023-12-07T00:53:54;88.95;;;13.55;;
56736;SDS011;42618;51.226;4.910;2023-12-07T00:56:21;85.55;;;15.10;;
56736;SDS011;42618;51.226;4.910;2023-12-07T00:58:48;56.50;;;10.80;;
56736;SDS011;42618;51.226;4.910;2023-12-07T01:01:14;92.05;;;14.43;;
56736;SDS011;42618;51.226;4.910;2023-12-07T01:03:44;88.00;;;14.75;;
56736;SDS011;42618;51.226;4.910;2023-12-07T01:06:13;144.70;;;15.60;;
56736;SDS011;42618;51.226;4.910;2023-12-07T01:08:40;87.88;;;12.45;;
56736;SDS011;42618;51.226;4.910;2023-12-07T01:11:08;76.90;;;14.60;;
56736;SDS011;42618;51.226;4.910;2023-12-07T01:13:34;25.23;;;6.35;;
56736;SDS011;42618;51.226;4.910;2023-12-07T01:16:02;95.90;;;12.45;;
56736;SDS011;42618;51.226;4.910;2023-12-07T01:18:29;85.10;;;13.00;;
56736;SDS011;42618;51.226;4.910;2023-12-07T01:20:56;123.47;;;15.57;;
56736;SDS011;42618;51.226;4.910;2023-12-07T01:23:22;151.27;;;15.18;;
56736;SDS011;42618;51.226;4.910;2023-12-07T01:25:49;83.68;;;13.88;;
56736;SDS011;42618;51.226;4.910;2023-12-07T01:28:18;96.78;;;13.55;;
56736;SDS011;42618;51.226;4.910;2023-12-07T01:30:45;116.25;;;15.25;;
56736;SDS011;42618;51.226;4.910;2023-12-07T01:33:12;27.93;;;8.20;;
56736;SDS011;42618;51.226;4.910;2023-12-07T01:35:38;59.88;;;10.63;;
56736;SDS011;42618;51.226;4.910;2023-12-07T01:38:05;227.10;;;16.48;;
56736;SDS011;42618;51.226;4.910;2023-12-07T01:40:32;170.57;;;14.25;;
56736;SDS011;42618;51.226;4.910;2023-12-07T01:42:58;87.22;;;9.32;;
56736;SDS011;42618;51.226;4.910;2023-12-07T01:45:28;188.82;;;13.50;;
56736;SDS011;42618;51.226;4.910;2023-12-07T01:47:54;125.55;;;13.40;;
56736;SDS011;42618;51.226;4.910;2023-12-07T01:50:23;35.25;;;7.93;;
56736;SDS011;42618;51.226;4.910;2023-12-07T01:52:52;91.15;;;12.88;;
56736;SDS011;42618;51.226;4.910;2023-12-07T01:55:20;74.13;;;9.88;;
56736;SDS011;42618;51.226;4.910;2023-12-07T01:57:48;61.55;;;11.57;;
56736;SDS011;42618;51.226;4.910;2023-12-07T02:00:15;94.68;;;12.52;;
56736;SDS011;42618;51.226;4.910;2023-12-07T02:02:43;117.07;;;12.95;;
56736;SDS011;42618;51.226;4.910;2023-12-07T02:05:10;103.15;;;11.70;;
56736;SDS011;42618;51.226;4.910;2023-12-07T02:07:39;97.45;;;13.40;;
56736;SDS011;42618;51.226;4.910;2023-12-07T02:10:07;147.32;;;13.85;;
56736;SDS011;42618;51.226;4.910;2023-12-07T02:12:33;165.40;;;15.40;;
56736;SDS011;42618;51.226;4.910;2023-12-07T02:15:02;140.13;;;15.05;;
56736;SDS011;42618;51.226;4.910;2023-12-07T02:17:36;193.52;;;15.27;;
56736;SDS011;42618;51.226;4.910;2023-12-07T02:20:49;142.18;;;16.05;;
56736;SDS011;42618;51.226;4.910;2023-12-07T02:22:55;181.48;;;14.38;;
56736;SDS011;42618;51.226;4.910;2023-12-07T02:25:44;232.93;;;17.70;;
56736;SDS011;42618;51.226;4.910;2023-12-07T02:28:09;133.15;;;12.95;;
56736;SDS011;42618;51.226;4.910;2023-12-07T02:30:35;141.90;;;16.02;;
56736;SDS011;42618;51.226;4.910;2023-12-07T02:33:02;110.60;;;12.70;;
56736;SDS011;42618;51.226;4.910;2023-12-07T02:35:29;151.75;;;13.57;;
56736;SDS011;42618;51.226;4.910;2023-12-07T02:37:55;145.13;;;14.35;;
56736;SDS011;42618;51.226;4.910;2023-12-07T02:40:24;123.63;;;12.27;;
56736;SDS011;42618;51.226;4.910;2023-12-07T02:42:54;189.13;;;15.05;;
56736;SDS011;42618;51.226;4.910;2023-12-07T02:45:21;169.82;;;14.70;;
56736;SDS011;42618;51.226;4.910;2023-12-07T02:47:47;175.90;;;14.77;;
56736;SDS011;42618;51.226;4.910;2023-12-07T02:50:15;259.85;;;17.40;;
56736;SDS011;42618;51.226;4.910;2023-12-07T02:52:41;136.50;;;13.15;;
56736;SDS011;42618;51.226;4.910;2023-12-07T02:55:08;123.57;;;13.57;;
56736;SDS011;42618;51.226;4.910;2023-12-07T02:57:36;125.95;;;13.48;;
56736;SDS011;42618;51.226;4.910;2023-12-07T03:00:03;115.60;;;13.27;;
56736;SDS011;42618;51.226;4.910;2023-12-07T03:02:36;119.28;;;14.38;;
56736;SDS011;42618;51.226;4.910;2023-12-07T03:05:03;101.88;;;13.60;;
56736;SDS011;42618;51.226;4.910;2023-12-07T03:07:30;148.68;;;16.05;;
56736;SDS011;42618;51.226;4.910;2023-12-07T03:09:57;129.40;;;13.57;;
56736;SDS011;42618;51.226;4.910;2023-12-07T03:12:24;87.43;;;10.27;;
56736;SDS011;42618;51.226;4.910;2023-12-07T03:14:51;94.85;;;11.98;;
56736;SDS011;42618;51.226;4.910;2023-12-07T03:17:18;102.32;;;13.13;;
56736;SDS011;42618;51.226;4.910;2023-12-07T03:19:45;112.50;;;13.80;;
56736;SDS011;42618;51.226;4.910;2023-12-07T03:22:11;120.70;;;12.65;;
56736;SDS011;42618;51.226;4.910;2023-12-07T03:24:43;79.80;;;12.82;;
56736;SDS011;42618;51.226;4.910;2023-12-07T03:27:10;96.28;;;10.63;;
56736;SDS011;42618;51.226;4.910;2023-12-07T03:29:37;103.82;;;10.80;;
56736;SDS011;42618;51.226;4.910;2023-12-07T03:32:03;51.78;;;8.68;;
56736;SDS011;42618;51.226;4.910;2023-12-07T03:34:30;90.60;;;11.57;;
56736;SDS011;42618;51.226;4.910;2023-12-07T03:36:56;33.63;;;7.57;;
56736;SDS011;42618;51.226;4.910;2023-12-07T03:39:25;74.68;;;10.35;;
56736;SDS011;42618;51.226;4.910;2023-12-07T03:41:55;48.55;;;9.73;;
56736;SDS011;42618;51.226;4.910;2023-12-07T03:44:21;43.95;;;8.73;;
56736;SDS011;42618;51.226;4.910;2023-12-07T03:46:48;40.55;;;9.02;;
56736;SDS011;42618;51.226;4.910;2023-12-07T03:49:14;61.92;;;10.88;;
56736;SDS011;42618;51.226;4.910;2023-12-07T03:51:41;78.60;;;11.70;;
56736;SDS011;42618;51.226;4.910;2023-12-07T03:54:11;80.90;;;12.93;;
56736;SDS011;42618;51.226;4.910;2023-12-07T03:56:45;50.65;;;11.32;;
56736;SDS011;42618;51.226;4.910;2023-12-07T03:59:11;63.53;;;11.52;;
56736;SDS011;42618;51.226;4.910;2023-12-07T04:01:38;76.20;;;14.20;;
56736;SDS011;42618;51.226;4.910;2023-12-07T04:04:05;75.25;;;13.65;;
56736;SDS011;42618;51.226;4.910;2023-12-07T04:06:31;58.28;;;12.40;;
56736;SDS011;42618;51.226;4.910;2023-12-07T04:08:58;53.58;;;13.68;;
56736;SDS011;42618;51.226;4.910;2023-12-07T04:11:25;51.35;;;11.80;;
56736;SDS011;42618;51.226;4.910;2023-12-07T04:13:51;59.70;;;13.75;;
56736;SDS011;42618;51.226;4.910;2023-12-07T04:16:18;56.70;;;12.43;;
56736;SDS011;42618;51.226;4.910;2023-12-07T04:18:44;73.47;;;11.98;;
56736;SDS011;42618;51.226;4.910;2023-12-07T04:21:15;70.10;;;12.48;;
56736;SDS011;42618;51.226;4.910;2023-12-07T04:23:41;58.45;;;12.15;;
56736;SDS011;42618;51.226;4.910;2023-12-07T04:26:08;69.07;;;12.43;;
56736;SDS011;42618;51.226;4.910;2023-12-07T04:28:36;62.33;;;12.65;;
56736;SDS011;42618;51.226;4.910;2023-12-07T04:31:04;83.68;;;14.57;;
56736;SDS011;42618;51.226;4.910;2023-12-07T04:33:31;54.33;;;11.00;;
56736;SDS011;42618;51.226;4.910;2023-12-07T04:35:58;61.45;;;11.20;;
56736;SDS011;42618;51.226;4.910;2023-12-07T04:38:25;49.20;;;10.77;;
56736;SDS011;42618;51.226;4.910;2023-12-07T04:40:51;66.00;;;12.50;;
56736;SDS011;42618;51.226;4.910;2023-12-07T04:45:46;78.07;;;14.65;;
56736;SDS011;42618;51.226;4.910;2023-12-07T04:48:12;22.23;;;8.57;;
56736;SDS011;42618;51.226;4.910;2023-12-07T04:50:39;55.28;;;12.20;;
56736;SDS011;42618;51.226;4.910;2023-12-07T04:53:06;61.60;;;13.60;;
56736;SDS011;42618;51.226;4.910;2023-12-07T04:55:33;34.42;;;8.57;;
56736;SDS011;42618;51.226;4.910;2023-12-07T04:57:59;41.00;;;10.40;;
56736;SDS011;42618;51.226;4.910;2023-12-07T05:00:26;53.30;;;11.75;;
56736;SDS011;42618;51.226;4.910;2023-12-07T05:02:53;49.28;;;12.07;;
56736;SDS011;42618;51.226;4.910;2023-12-07T05:05:20;49.72;;;12.63;;
56736;SDS011;42618;51.226;4.910;2023-12-07T05:07:46;44.35;;;11.52;;
56736;SDS011;42618;51.226;4.910;2023-12-07T05:10:16;51.53;;;12.98;;
56736;SDS011;42618;51.226;4.910;2023-12-07T05:12:43;54.10;;;12.55;;
56736;SDS011;42618;51.226;4.910;2023-12-07T05:15:09;56.65;;;14.70;;
56736;SDS011;42618;51.226;4.910;2023-12-07T05:17:37;66.63;;;15.45;;
56736;SDS011;42618;51.226;4.910;2023-12-07T05:20:04;66.35;;;14.98;;
56736;SDS011;42618;51.226;4.910;2023-12-07T05:22:31;63.63;;;16.60;;
56736;SDS011;42618;51.226;4.910;2023-12-07T05:24:58;55.45;;;13.45;;
56736;SDS011;42618;51.226;4.910;2023-12-07T05:27:25;65.25;;;15.63;;
56736;SDS011;42618;51.226;4.910;2023-12-07T05:29:51;69.68;;;15.93;;
56736;SDS011;42618;51.226;4.910;2023-12-07T05:32:18;55.83;;;13.52;;
56736;SDS011;42618;51.226;4.910;2023-12-07T05:34:45;60.95;;;14.82;;
56736;SDS011;42618;51.226;4.910;2023-12-07T05:37:12;72.30;;;18.23;;
56736;SDS011;42618;51.226;4.910;2023-12-07T05:39:39;54.58;;;15.38;;
56736;SDS011;42618;51.226;4.910;2023-12-07T05:42:05;50.42;;;13.40;;
56736;SDS011;42618;51.226;4.910;2023-12-07T05:44:36;51.80;;;13.88;;
56736;SDS011;42618;51.226;4.910;2023-12-07T05:47:02;56.90;;;14.27;;
56736;SDS011;42618;51.226;4.910;2023-12-07T05:49:29;62.95;;;15.70;;
56736;SDS011;42618;51.226;4.910;2023-12-07T05:51:56;51.10;;;15.70;;
56736;SDS011;42618;51.226;4.910;2023-12-07T05:54:22;59.97;;;15.07;;
56736;SDS011;42618;51.226;4.910;2023-12-07T05:56:49;49.63;;;13.48;;
56736;SDS011;42618;51.226;4.910;2023-12-07T05:59:16;44.22;;;12.00;;
56736;SDS011;42618;51.226;4.910;2023-12-07T06:01:43;38.50;;;11.10;;
56736;SDS011;42618;51.226;4.910;2023-12-07T06:04:10;43.22;;;12.40;;
56736;SDS011;42618;51.226;4.910;2023-12-07T06:06:39;38.15;;;12.25;;
56736;SDS011;42618;51.226;4.910;2023-12-07T06:09:05;26.55;;;9.85;;
56736;SDS011;42618;51.226;4.910;2023-12-07T06:11:32;38.08;;;11.68;;
56736;SDS011;42618;51.226;4.910;2023-12-07T06:13:59;32.70;;;9.57;;
56736;SDS011;42618;51.226;4.910;2023-12-07T06:16:29;41.95;;;12.75;;
56736;SDS011;42618;51.226;4.910;2023-12-07T06:18:56;45.85;;;12.95;;
56736;SDS011;42618;51.226;4.910;2023-12-07T06:21:23;51.77;;;13.17;;
56736;SDS011;42618;51.226;4.910;2023-12-07T06:23:51;42.17;;;13.32;;
56736;SDS011;42618;51.226;4.910;2023-12-07T06:26:19;37.22;;;11.93;;
56736;SDS011;42618;51.226;4.910;2023-12-07T06:28:45;36.25;;;12.73;;
56736;SDS011;42618;51.226;4.910;2023-12-07T06:31:12;25.13;;;10.38;;
56736;SDS011;42618;51.226;4.910;2023-12-07T06:33:42;25.33;;;9.27;;
56736;SDS011;42618;51.226;4.910;2023-12-07T06:36:09;41.50;;;13.63;;
56736;SDS011;42618;51.226;4.910;2023-12-07T06:38:36;38.60;;;12.23;;
56736;SDS011;42618;51.226;4.910;2023-12-07T06:41:03;39.70;;;12.18;;
56736;SDS011;42618;51.226;4.910;2023-12-07T06:43:29;37.53;;;13.07;;
56736;SDS011;42618;51.226;4.910;2023-12-07T06:45:56;41.15;;;13.27;;
56736;SDS011;42618;51.226;4.910;2023-12-07T06:48:23;37.03;;;13.20;;
56736;SDS011;42618;51.226;4.910;2023-12-07T06:50:49;39.25;;;14.75;;
56736;SDS011;42618;51.226;4.910;2023-12-07T06:53:16;38.90;;;13.45;;
56736;SDS011;42618;51.226;4.910;2023-12-07T06:55:44;40.90;;;13.38;;
56736;SDS011;42618;51.226;4.910;2023-12-07T06:58:12;44.05;;;16.10;;
56736;SDS011;42618;51.226;4.910;2023-12-07T07:00:38;42.15;;;15.05;;
56736;SDS011;42618;51.226;4.910;2023-12-07T07:03:05;42.10;;;16.27;;
56736;SDS011;42618;51.226;4.910;2023-12-07T07:05:34;41.75;;;15.23;;
56736;SDS011;42618;51.226;4.910;2023-12-07T07:08:01;37.45;;;13.52;;
56736;SDS011;42618;51.226;4.910;2023-12-07T07:10:28;42.20;;;15.07;;
56736;SDS011;42618;51.226;4.910;2023-12-07T07:12:54;34.33;;;13.80;;
56736;SDS011;42618;51.226;4.910;2023-12-07T07:15:21;34.00;;;13.27;;
56736;SDS011;42618;51.226;4.910;2023-12-07T07:17:49;32.10;;;13.02;;
56736;SDS011;42618;51.226;4.910;2023-12-07T07:20:16;33.92;;;11.82;;
56736;SDS011;42618;51.226;4.910;2023-12-07T07:22:43;29.65;;;12.90;;
56736;SDS011;42618;51.226;4.910;2023-12-07T07:25:11;26.27;;;10.93;;
56736;SDS011;42618;51.226;4.910;2023-12-07T07:27:38;30.02;;;13.15;;
56736;SDS011;42618;51.226;4.910;2023-12-07T07:30:05;29.88;;;12.70;;
56736;SDS011;42618;51.226;4.910;2023-12-07T07:32:35;29.73;;;12.07;;
56736;SDS011;42618;51.226;4.910;2023-12-07T07:35:02;33.88;;;13.27;;
56736;SDS011;42618;51.226;4.910;2023-12-07T07:37:29;32.05;;;13.73;;
56736;SDS011;42618;51.226;4.910;2023-12-07T07:39:56;31.50;;;11.35;;
56736;SDS011;42618;51.226;4.910;2023-12-07T07:42:22;29.33;;;12.75;;
56736;SDS011;42618;51.226;4.910;2023-12-07T07:44:52;35.00;;;13.88;;
56736;SDS011;42618;51.226;4.910;2023-12-07T07:47:21;26.23;;;11.40;;
56736;SDS011;42618;51.226;4.910;2023-12-07T07:49:48;31.17;;;12.77;;
56736;SDS011;42618;51.226;4.910;2023-12-07T07:52:15;31.00;;;11.73;;
56736;SDS011;42618;51.226;4.910;2023-12-07T07:54:42;28.35;;;12.70;;
56736;SDS011;42618;51.226;4.910;2023-12-07T07:57:09;29.80;;;11.32;;
56736;SDS011;42618;51.226;4.910;2023-12-07T07:59:38;33.72;;;12.65;;
56736;SDS011;42618;51.226;4.910;2023-12-07T08:02:05;31.00;;;12.70;;
56736;SDS011;42618;51.226;4.910;2023-12-07T08:04:31;27.52;;;12.98;;
56736;SDS011;42618;51.226;4.910;2023-12-07T08:06:59;34.10;;;12.68;;
56736;SDS011;42618;51.226;4.910;2023-12-07T08:09:25;31.43;;;12.50;;
56736;SDS011;42618;51.226;4.910;2023-12-07T08:11:52;29.70;;;12.52;;
56736;SDS011;42618;51.226;4.910;2023-12-07T08:14:19;31.77;;;12.40;;
56736;SDS011;42618;51.226;4.910;2023-12-07T08:16:45;33.53;;;13.02;;
56736;SDS011;42618;51.226;4.910;2023-12-07T08:19:13;26.45;;;12.80;;
56736;SDS011;42618;51.226;4.910;2023-12-07T08:21:40;34.23;;;13.20;;
56736;SDS011;42618;51.226;4.910;2023-12-07T08:24:06;28.95;;;12.20;;
56736;SDS011;42618;51.226;4.910;2023-12-07T08:26:33;37.17;;;13.73;;
56736;SDS011;42618;51.226;4.910;2023-12-07T08:29:00;35.88;;;13.52;;
56736;SDS011;42618;51.226;4.910;2023-12-07T08:31:26;32.70;;;13.57;;
56736;SDS011;42618;51.226;4.910;2023-12-07T08:33:53;35.65;;;14.70;;
56736;SDS011;42618;51.226;4.910;2023-12-07T08:36:20;34.73;;;14.07;;
56736;SDS011;42618;51.226;4.910;2023-12-07T08:38:47;38.15;;;15.38;;
56736;SDS011;42618;51.226;4.910;2023-12-07T08:41:14;33.77;;;14.83;;
56736;SDS011;42618;51.226;4.910;2023-12-07T08:43:41;43.47;;;18.37;;
56736;SDS011;42618;51.226;4.910;2023-12-07T08:46:08;40.33;;;17.80;;
56736;SDS011;42618;51.226;4.910;2023-12-07T08:48:35;38.67;;;14.60;;
56736;SDS011;42618;51.226;4.910;2023-12-07T08:51:08;43.00;;;15.07;;
56736;SDS011;42618;51.226;4.910;2023-12-07T08:53:35;34.22;;;14.13;;
56736;SDS011;42618;51.226;4.910;2023-12-07T08:56:04;35.13;;;14.73;;
56736;SDS011;42618;51.226;4.910;2023-12-07T08:58:31;37.85;;;15.23;;
56736;SDS011;42618;51.226;4.910;2023-12-07T09:00:58;38.35;;;15.32;;
56736;SDS011;42618;51.226;4.910;2023-12-07T09:03:27;38.00;;;13.50;;
56736;SDS011;42618;51.226;4.910;2023-12-07T09:06:00;36.05;;;14.65;;
56736;SDS011;42618;51.226;4.910;2023-12-07T09:08:27;35.17;;;13.57;;
56736;SDS011;42618;51.226;4.910;2023-12-07T09:10:53;32.55;;;12.23;;
56736;SDS011;42618;51.226;4.910;2023-12-07T09:13:20;35.42;;;12.77;;
56736;SDS011;42618;51.226;4.910;2023-12-07T09:15:47;31.92;;;12.80;;
56736;SDS011;42618;51.226;4.910;2023-12-07T09:18:13;33.78;;;13.98;;
56736;SDS011;42618;51.226;4.910;2023-12-07T09:20:40;31.00;;;11.65;;
56736;SDS011;42618;51.226;4.910;2023-12-07T09:23:12;32.28;;;11.50;;
56736;SDS011;42618;51.226;4.910;2023-12-07T09:28:07;37.20;;;14.93;;
56736;SDS011;42618;51.226;4.910;2023-12-07T09:30:34;39.92;;;16.95;;
56736;SDS011;42618;51.226;4.910;2023-12-07T09:33:01;34.00;;;13.43;;
56736;SDS011;42618;51.226;4.910;2023-12-07T09:35:32;33.00;;;13.05;;
56736;SDS011;42618;51.226;4.910;2023-12-07T09:38:01;26.83;;;11.73;;
56736;SDS011;42618;51.226;4.910;2023-12-07T09:40:27;27.63;;;10.93;;
56736;SDS011;42618;51.226;4.910;2023-12-07T09:42:55;27.08;;;11.73;;
56736;SDS011;42618;51.226;4.910;2023-12-07T09:45:22;24.13;;;10.50;;
56736;SDS011;42618;51.226;4.910;2023-12-07T09:47:51;24.08;;;10.98;;
56736;SDS011;42618;51.226;4.910;2023-12-07T09:50:22;24.30;;;10.88;;
56736;SDS011;42618;51.226;4.910;2023-12-07T09:52:49;22.98;;;10.73;;
56736;SDS011;42618;51.226;4.910;2023-12-07T09:55:30;23.10;;;10.48;;
56736;SDS011;42618;51.226;4.910;2023-12-07T09:57:57;24.17;;;10.15;;
56736;SDS011;42618;51.226;4.910;2023-12-07T10:00:24;23.67;;;10.10;;
56736;SDS011;42618;51.226;4.910;2023-12-07T10:02:52;29.27;;;10.60;;
56736;SDS011;42618;51.226;4.910;2023-12-07T10:05:21;22.77;;;9.82;;
56736;SDS011;42618;51.226;4.910;2023-12-07T10:07:48;22.45;;;10.45;;
56736;SDS011;42618;51.226;4.910;2023-12-07T10:10:15;19.45;;;9.07;;
56736;SDS011;42618;51.226;4.910;2023-12-07T10:12:55;22.08;;;10.30;;
56736;SDS011;42618;51.226;4.910;2023-12-07T10:15:24;20.80;;;9.10;;
56736;SDS011;42618;51.226;4.910;2023-12-07T10:17:55;21.90;;;9.30;;
56736;SDS011;42618;51.226;4.910;2023-12-07T10:20:27;23.23;;;10.25;;
56736;SDS011;42618;51.226;4.910;2023-12-07T10:23:01;21.55;;;10.35;;
56736;SDS011;42618;51.226;4.910;2023-12-07T10:25:40;28.48;;;13.63;;
56736;SDS011;42618;51.226;4.910;2023-12-07T10:28:08;21.77;;;10.48;;
56736;SDS011;42618;51.226;4.910;2023-12-07T10:30:40;21.38;;;9.90;;
56736;SDS011;42618;51.226;4.910;2023-12-07T10:33:10;21.80;;;10.13;;
56736;SDS011;42618;51.226;4.910;2023-12-07T10:35:40;22.23;;;10.38;;
56736;SDS011;42618;51.226;4.910;2023-12-07T10:38:08;20.75;;;9.63;;
56736;SDS011;42618;51.226;4.910;2023-12-07T10:40:35;25.02;;;10.15;;
56736;SDS011;42618;51.226;4.910;2023-12-07T10:43:06;22.08;;;9.68;;
56736;SDS011;42618;51.226;4.910;2023-12-07T10:45:37;21.13;;;9.98;;
56736;SDS011;42618;51.226;4.910;2023-12-07T10:48:06;20.13;;;9.02;;
56736;SDS011;42618;51.226;4.910;2023-12-07T10:50:35;21.80;;;10.05;;
56736;SDS011;42618;51.226;4.910;2023-12-07T10:53:04;22.77;;;9.77;;
56736;SDS011;42618;51.226;4.910;2023-12-07T10:55:38;20.52;;;9.25;;
56736;SDS011;42618;51.226;4.910;2023-12-07T10:58:07;22.85;;;10.50;;
56736;SDS011;42618;51.226;4.910;2023-12-07T11:00:35;19.33;;;9.18;;
56736;SDS011;42618;51.226;4.910;2023-12-07T11:03:11;20.17;;;8.90;;
56736;SDS011;42618;51.226;4.910;2023-12-07T11:05:41;19.05;;;9.13;;
56736;SDS011;42618;51.226;4.910;2023-12-07T11:08:09;16.75;;;8.23;;
56736;SDS011;42618;51.226;4.910;2023-12-07T11:13:20;17.38;;;8.40;;
56736;SDS011;42618;51.226;4.910;2023-12-07T11:15:47;17.95;;;8.48;;
56736;SDS011;42618;51.226;4.910;2023-12-07T11:18:19;16.08;;;7.38;;
56736;SDS011;42618;51.226;4.910;2023-12-07T11:20:48;16.30;;;7.65;;
56736;SDS011;42618;51.226;4.910;2023-12-07T11:23:17;16.63;;;6.47;;
56736;SDS011;42618;51.226;4.910;2023-12-07T11:25:45;13.07;;;7.55;;
56736;SDS011;42618;51.226;4.910;2023-12-07T11:28:12;12.63;;;7.55;;
56736;SDS011;42618;51.226;4.910;2023-12-07T11:30:41;14.90;;;6.67;;
56736;SDS011;42618;51.226;4.910;2023-12-07T11:33:09;15.93;;;6.97;;
56736;SDS011;42618;51.226;4.910;2023-12-07T11:38:22;15.50;;;7.22;;
56736;SDS011;42618;51.226;4.910;2023-12-07T11:40:48;14.48;;;7.13;;
56736;SDS011;42618;51.226;4.910;2023-12-07T11:43:30;17.58;;;7.90;;
56736;SDS011;42618;51.226;4.910;2023-12-07T11:46:02;21.15;;;8.88;;
56736;SDS011;42618;51.226;4.910;2023-12-07T11:48:29;17.77;;;8.60;;
56736;SDS011;42618;51.226;4.910;2023-12-07T11:51:00;22.17;;;10.40;;
56736;SDS011;42618;51.226;4.910;2023-12-07T11:53:27;23.70;;;10.85;;
56736;SDS011;42618;51.226;4.910;2023-12-07T11:55:57;21.95;;;10.65;;
56736;SDS011;42618;51.226;4.910;2023-12-07T11:58:25;28.45;;;14.52;;
56736;SDS011;42618;51.226;4.910;2023-12-07T12:00:52;26.13;;;11.32;;
56736;SDS011;42618;51.226;4.910;2023-12-07T12:03:24;25.70;;;12.52;;
56736;SDS011;42618;51.226;4.910;2023-12-07T12:05:54;24.20;;;12.07;;
56736;SDS011;42618;51.226;4.910;2023-12-07T12:08:24;24.33;;;12.13;;
56736;SDS011;42618;51.226;4.910;2023-12-07T12:10:51;25.23;;;12.97;;
56736;SDS011;42618;51.226;4.910;2023-12-07T12:13:27;24.88;;;12.35;;
56736;SDS011;42618;51.226;4.910;2023-12-07T12:15:55;22.52;;;12.07;;
56736;SDS011;42618;51.226;4.910;2023-12-07T12:18:22;24.98;;;12.07;;
56736;SDS011;42618;51.226;4.910;2023-12-07T12:20:50;26.02;;;13.48;;
56736;SDS011;42618;51.226;4.910;2023-12-07T12:23:17;23.40;;;12.13;;
56736;SDS011;42618;51.226;4.910;2023-12-07T12:25:43;20.52;;;11.05;;
56736;SDS011;42618;51.226;4.910;2023-12-07T12:28:11;21.90;;;11.18;;
56736;SDS011;42618;51.226;4.910;2023-12-07T12:30:40;27.60;;;11.48;;
56736;SDS011;42618;51.226;4.910;2023-12-07T12:33:07;22.57;;;11.03;;
56736;SDS011;42618;51.226;4.910;2023-12-07T12:35:33;22.33;;;10.90;;
56736;SDS011;42618;51.226;4.910;2023-12-07T12:38:00;22.55;;;10.95;;
56736;SDS011;42618;51.226;4.910;2023-12-07T12:40:27;20.17;;;9.27;;
56736;SDS011;42618;51.226;4.910;2023-12-07T12:42:55;20.85;;;10.75;;
56736;SDS011;42618;51.226;4.910;2023-12-07T12:45:23;27.58;;;13.23;;
56736;SDS011;42618;51.226;4.910;2023-12-07T12:47:51;23.20;;;8.90;;
56736;SDS011;42618;51.226;4.910;2023-12-07T12:50:38;17.67;;;7.68;;
56736;SDS011;42618;51.226;4.910;2023-12-07T12:53:05;17.52;;;7.65;;
56736;SDS011;42618;51.226;4.910;2023-12-07T12:55:38;16.98;;;7.25;;
56736;SDS011;42618;51.226;4.910;2023-12-07T12:58:08;17.73;;;7.45;;
56736;SDS011;42618;51.226;4.910;2023-12-07T13:00:38;15.32;;;7.55;;
56736;SDS011;42618;51.226;4.910;2023-12-07T13:03:08;15.43;;;6.47;;
56736;SDS011;42618;51.226;4.910;2023-12-07T13:05:35;12.98;;;6.22;;
56736;SDS011;42618;51.226;4.910;2023-12-07T13:08:03;15.00;;;6.43;;
56736;SDS011;42618;51.226;4.910;2023-12-07T13:10:40;13.27;;;6.63;;
56736;SDS011;42618;51.226;4.910;2023-12-07T13:13:07;15.82;;;6.32;;
56736;SDS011;42618;51.226;4.910;2023-12-07T13:15:34;12.60;;;6.03;;
56736;SDS011;42618;51.226;4.910;2023-12-07T13:18:00;13.98;;;7.35;;
56736;SDS011;42618;51.226;4.910;2023-12-07T13:20:31;14.50;;;7.43;;
56736;SDS011;42618;51.226;4.910;2023-12-07T13:23:15;17.05;;;6.78;;
56736;SDS011;42618;51.226;4.910;2023-12-07T13:25:43;13.45;;;6.57;;
56736;SDS011;42618;51.226;4.910;2023-12-07T13:28:10;12.68;;;6.50;;
56736;SDS011;42618;51.226;4.910;2023-12-07T13:30:37;15.23;;;6.60;;
56736;SDS011;42618;51.226;4.910;2023-12-07T13:33:03;16.00;;;7.35;;
56736;SDS011;42618;51.226;4.910;2023-12-07T13:35:47;15.05;;;6.90;;
56736;SDS011;42618;51.226;4.910;2023-12-07T13:38:14;12.80;;;6.78;;
56736;SDS011;42618;51.226;4.910;2023-12-07T13:40:40;15.15;;;6.78;;
56736;SDS011;42618;51.226;4.910;2023-12-07T13:43:07;15.27;;;6.95;;
56736;SDS011;42618;51.226;4.910;2023-12-07T13:48:02;15.07;;;7.28;;
56736;SDS011;42618;51.226;4.910;2023-12-07T13:50:31;14.15;;;6.95;;
56736;SDS011;42618;51.226;4.910;2023-12-07T13:52:58;12.63;;;6.50;;
56736;SDS011;42618;51.226;4.910;2023-12-07T13:55:25;12.95;;;6.47;;
56736;SDS011;42618;51.226;4.910;2023-12-07T13:57:51;16.35;;;7.03;;
56736;SDS011;42618;51.226;4.910;2023-12-07T14:00:20;13.77;;;7.05;;
56736;SDS011;42618;51.226;4.910;2023-12-07T14:02:50;12.52;;;6.05;;
56736;SDS011;42618;51.226;4.910;2023-12-07T14:05:17;13.13;;;6.45;;
56736;SDS011;42618;51.226;4.910;2023-12-07T14:07:48;14.27;;;5.75;;
56736;SDS011;42618;51.226;4.910;2023-12-07T14:10:15;16.20;;;5.72;;
56736;SDS011;42618;51.226;4.910;2023-12-07T14:12:41;12.52;;;5.93;;
56736;SDS011;42618;51.226;4.910;2023-12-07T14:15:08;10.43;;;5.57;;
56736;SDS011;42618;51.226;4.910;2023-12-07T14:17:36;14.60;;;6.20;;
56736;SDS011;42618;51.226;4.910;2023-12-07T14:20:16;33.28;;;8.10;;
56736;SDS011;42618;51.226;4.910;2023-12-07T14:23:02;13.40;;;5.53;;
56736;SDS011;42618;51.226;4.910;2023-12-07T14:25:34;12.55;;;5.82;;
56736;SDS011;42618;51.226;4.910;2023-12-07T14:28:01;12.20;;;6.22;;
56736;SDS011;42618;51.226;4.910;2023-12-07T14:30:27;11.60;;;5.57;;
56736;SDS011;42618;51.226;4.910;2023-12-07T14:32:54;16.00;;;6.00;;
56736;SDS011;42618;51.226;4.910;2023-12-07T14:35:21;11.47;;;5.93;;
56736;SDS011;42618;51.226;4.910;2023-12-07T14:37:48;11.77;;;5.65;;
56736;SDS011;42618;51.226;4.910;2023-12-07T14:40:17;11.82;;;5.55;;
56736;SDS011;42618;51.226;4.910;2023-12-07T14:42:44;10.07;;;5.35;;